Thimphu, Bhutan
Current Conditions -  °F | °C
As of 2:50 PM on Friday 31 Oct 2014 (Local Time) from VQPR Reporting Station
Scattered Clouds Scattered Clouds  
Wind Chill: 68°   Ceiling: Unl
Heat Index: 68°   Visibility: 6mi
Dew Point: 36°   Wind: 14mph
Humidity: 30%   Direction: 110°ESE
Pressure: 30.06"   Gusts: NA
Location:  27.48°N, 89.7°E
Report Text: VQPR 310850Z 11012KT 9999 SCT030 20/02 Q1018 NOSIG
Loading
Personal Weather Stations






























Interactive Weather Map
Tropical Storm Tracking
New forecast layout! Learn more

10-Day Weather Forecast

Advertisements
Track Severe Weather on mobile